TimePST,TemperatureF,Dew PointF,Humidity,Sea Level PressureIn,VisibilityMPH,Wind Direction,Wind SpeedMPH,Gust SpeedMPH,PrecipitationIn,Events,Conditions,WindDirDegrees,DateUTC
12:53 AM,51.1,48.9,92,30.06,10.0,Calm,Calm,-,N/A,,Clear,0,2012-11-29 08:53:00
1:53 AM,51.1,48.9,92,30.06,10.0,Calm,Calm,-,N/A,,Overcast,0,2012-11-29 09:53:00
2:53 AM,51.1,48.9,92,30.06,10.0,Calm,Calm,-,N/A,,Clear,0,2012-11-29 10:53:00
3:53 AM,53.1,50.0,89,30.05,10.0,Calm,Calm,-,N/A,,Overcast,0,2012-11-29 11:53:00
4:53 AM,53.1,50.0,89,30.04,10.0,South,3.5,-,N/A,,Mostly Cloudy,170,2012-11-29 12:53:00
5:53 AM,53.1,48.9,86,30.04,10.0,South,5.8,-,N/A,,Partly Cloudy,190,2012-11-29 13:53:00
6:53 AM,54.0,48.9,83,30.04,10.0,South,3.5,-,N/A,,Clear,190,2012-11-29 14:53:00
7:53 AM,54.0,48.9,83,30.05,10.0,SSW,3.5,-,N/A,,Mostly Cloudy,200,2012-11-29 15:53:00
8:53 AM,55.0,48.9,80,30.05,10.0,SSE,5.8,-,N/A,,Clear,160,2012-11-29 16:53:00
9:53 AM,55.9,51.1,84,30.04,10.0,SSE,4.6,-,N/A,,Clear,160,2012-11-29 17:53:00
10:53 AM,57.9,51.1,78,30.03,10.0,SSE,6.9,-,N/A,,Overcast,160,2012-11-29 18:53:00
11:53 AM,57.0,51.1,81,30.01,10.0,SSE,8.1,-,N/A,,Overcast,160,2012-11-29 19:53:00
12:53 PM,57.9,51.1,78,29.99,10.0,SSE,8.1,-,N/A,,Overcast,160,2012-11-29 20:53:00
1:53 PM,57.9,52.0,81,29.98,10.0,SE,3.5,-,N/A,,Overcast,140,2012-11-29 21:53:00
2:53 PM,57.9,53.1,84,29.95,9.0,SSE,15.0,26.5,N/A,,Overcast,150,2012-11-29 22:53:00
3:53 PM,57.9,54.0,87,29.94,10.0,SSE,12.7,21.9,N/A,,Overcast,160,2012-11-29 23:53:00
4:01 PM,57.2,53.6,88,29.94,10.0,South,12.7,21.9,N/A,,Overcast,170,2012-11-30 00:01:00
4:53 PM,57.9,54.0,87,29.93,10.0,SSE,8.1,-,N/A,,Overcast,160,2012-11-30 00:53:00
5:53 PM,59.0,55.0,87,29.93,8.0,South,10.4,17.3,0.01,Rain,Light Rain,170,2012-11-30 01:53:00
6:53 PM,57.0,55.9,96,29.91,3.0,South,9.2,-,0.12,Rain,Heavy Rain,170,2012-11-30 02:53:00
7:53 PM,59.0,55.0,87,29.90,10.0,South,9.2,-,0.02,,Overcast,180,2012-11-30 03:53:00
8:14 PM,59.0,55.4,88,29.88,10.0,South,12.7,19.6,N/A,,Overcast,170,2012-11-30 04:14:00
8:53 PM,59.0,55.0,87,29.88,10.0,South,13.8,21.9,N/A,,Overcast,170,2012-11-30 04:53:00
9:53 PM,60.1,55.9,86,29.88,10.0,South,11.5,20.7,0.01,,Overcast,170,2012-11-30 05:53:00
10:53 PM,57.9,57.0,97,29.88,8.0,South,11.5,19.6,0.01,Rain,Light Rain,170,2012-11-30 06:53:00
11:41 PM,59.0,57.2,94,29.86,10.0,South,10.4,23.0,0.02,Rain,Light Rain,180,2012-11-30 07:41:00
11:53 PM,59.0,57.0,93,29.87,9.0,South,11.5,18.4,0.03,Rain,Light Rain,170,2012-11-30 07:53:00